sensor_id;sensor_type;location;lat;lon;timestamp;P1;durP1;ratioP1;P2;durP2;ratioP2
479;SDS011;226;48.606;9.096;2022-08-19T00:01:52;17.53;;;8.60;;
479;SDS011;226;48.606;9.096;2022-08-19T00:04:22;23.97;;;9.87;;
479;SDS011;226;48.606;9.096;2022-08-19T00:06:52;13.03;;;7.67;;
479;SDS011;226;48.606;9.096;2022-08-19T00:09:20;18.20;;;8.07;;
479;SDS011;226;48.606;9.096;2022-08-19T00:11:50;17.00;;;8.60;;
479;SDS011;226;48.606;9.096;2022-08-19T00:14:19;15.63;;;7.83;;
479;SDS011;226;48.606;9.096;2022-08-19T00:16:49;19.70;;;8.93;;
479;SDS011;226;48.606;9.096;2022-08-19T00:19:21;14.47;;;7.57;;
479;SDS011;226;48.606;9.096;2022-08-19T00:21:50;16.07;;;8.50;;
479;SDS011;226;48.606;9.096;2022-08-19T00:24:18;17.40;;;8.90;;
479;SDS011;226;48.606;9.096;2022-08-19T00:26:46;22.50;;;8.77;;
479;SDS011;226;48.606;9.096;2022-08-19T00:29:15;16.93;;;8.33;;
479;SDS011;226;48.606;9.096;2022-08-19T00:31:45;18.43;;;9.23;;
479;SDS011;226;48.606;9.096;2022-08-19T00:34:17;20.63;;;8.43;;
479;SDS011;226;48.606;9.096;2022-08-19T00:36:45;21.03;;;9.20;;
479;SDS011;226;48.606;9.096;2022-08-19T00:39:14;19.90;;;9.43;;
479;SDS011;226;48.606;9.096;2022-08-19T00:41:43;21.07;;;9.73;;
479;SDS011;226;48.606;9.096;2022-08-19T00:44:14;22.20;;;9.17;;
479;SDS011;226;48.606;9.096;2022-08-19T00:46:48;17.57;;;8.23;;
479;SDS011;226;48.606;9.096;2022-08-19T00:49:27;20.87;;;10.07;;
479;SDS011;226;48.606;9.096;2022-08-19T00:52:00;23.90;;;9.77;;
479;SDS011;226;48.606;9.096;2022-08-19T00:54:33;19.67;;;9.57;;
479;SDS011;226;48.606;9.096;2022-08-19T00:57:04;18.73;;;8.50;;
479;SDS011;226;48.606;9.096;2022-08-19T00:59:36;18.73;;;8.33;;
479;SDS011;226;48.606;9.096;2022-08-19T01:02:27;19.27;;;8.27;;
479;SDS011;226;48.606;9.096;2022-08-19T01:04:58;22.00;;;8.40;;
479;SDS011;226;48.606;9.096;2022-08-19T01:07:27;21.47;;;8.97;;
479;SDS011;226;48.606;9.096;2022-08-19T01:10:04;17.93;;;9.50;;
479;SDS011;226;48.606;9.096;2022-08-19T01:12:33;19.70;;;9.80;;
479;SDS011;226;48.606;9.096;2022-08-19T01:15:02;19.27;;;9.03;;
479;SDS011;226;48.606;9.096;2022-08-19T01:17:31;19.10;;;8.57;;
479;SDS011;226;48.606;9.096;2022-08-19T01:20:03;15.40;;;7.60;;
479;SDS011;226;48.606;9.096;2022-08-19T01:22:35;22.03;;;8.90;;
479;SDS011;226;48.606;9.096;2022-08-19T01:25:10;19.40;;;9.00;;
479;SDS011;226;48.606;9.096;2022-08-19T01:27:41;17.23;;;7.70;;
479;SDS011;226;48.606;9.096;2022-08-19T01:30:11;24.63;;;10.63;;
479;SDS011;226;48.606;9.096;2022-08-19T01:32:41;19.00;;;9.17;;
479;SDS011;226;48.606;9.096;2022-08-19T01:35:10;20.10;;;8.80;;
479;SDS011;226;48.606;9.096;2022-08-19T01:37:44;21.33;;;10.23;;
479;SDS011;226;48.606;9.096;2022-08-19T01:40:14;21.87;;;9.13;;
479;SDS011;226;48.606;9.096;2022-08-19T01:42:43;23.17;;;9.80;;
479;SDS011;226;48.606;9.096;2022-08-19T01:45:11;20.30;;;10.27;;
479;SDS011;226;48.606;9.096;2022-08-19T01:47:39;18.37;;;9.00;;
479;SDS011;226;48.606;9.096;2022-08-19T01:50:17;18.50;;;9.70;;
479;SDS011;226;48.606;9.096;2022-08-19T01:52:48;20.40;;;8.80;;
479;SDS011;226;48.606;9.096;2022-08-19T01:55:32;19.47;;;8.40;;
479;SDS011;226;48.606;9.096;2022-08-19T01:58:06;29.27;;;12.50;;
479;SDS011;226;48.606;9.096;2022-08-19T02:00:38;18.53;;;9.80;;
479;SDS011;226;48.606;9.096;2022-08-19T02:03:06;22.07;;;9.97;;
479;SDS011;226;48.606;9.096;2022-08-19T02:05:35;25.60;;;10.17;;
479;SDS011;226;48.606;9.096;2022-08-19T02:08:05;23.73;;;10.87;;
479;SDS011;226;48.606;9.096;2022-08-19T02:10:33;16.33;;;8.93;;
479;SDS011;226;48.606;9.096;2022-08-19T02:13:05;23.80;;;11.07;;
479;SDS011;226;48.606;9.096;2022-08-19T02:15:33;20.30;;;10.33;;
479;SDS011;226;48.606;9.096;2022-08-19T02:18:03;17.00;;;8.53;;
479;SDS011;226;48.606;9.096;2022-08-19T02:20:31;20.40;;;9.40;;
479;SDS011;226;48.606;9.096;2022-08-19T02:23:00;24.70;;;11.03;;
479;SDS011;226;48.606;9.096;2022-08-19T02:25:29;23.70;;;9.93;;
479;SDS011;226;48.606;9.096;2022-08-19T02:27:58;24.20;;;10.70;;
479;SDS011;226;48.606;9.096;2022-08-19T02:30:26;21.60;;;9.67;;
479;SDS011;226;48.606;9.096;2022-08-19T02:32:54;24.07;;;10.20;;
479;SDS011;226;48.606;9.096;2022-08-19T02:35:23;23.87;;;11.40;;
479;SDS011;226;48.606;9.096;2022-08-19T02:37:51;22.03;;;10.13;;
479;SDS011;226;48.606;9.096;2022-08-19T02:40:38;18.97;;;9.03;;
479;SDS011;226;48.606;9.096;2022-08-19T02:43:07;25.60;;;10.30;;
479;SDS011;226;48.606;9.096;2022-08-19T02:45:37;21.33;;;9.83;;
479;SDS011;226;48.606;9.096;2022-08-19T02:48:07;24.53;;;10.23;;
479;SDS011;226;48.606;9.096;2022-08-19T02:50:47;26.30;;;12.30;;
479;SDS011;226;48.606;9.096;2022-08-19T02:53:19;20.53;;;9.10;;
479;SDS011;226;48.606;9.096;2022-08-19T02:55:49;20.93;;;10.23;;
479;SDS011;226;48.606;9.096;2022-08-19T02:58:18;22.83;;;9.63;;
479;SDS011;226;48.606;9.096;2022-08-19T03:00:51;25.23;;;10.63;;
479;SDS011;226;48.606;9.096;2022-08-19T03:03:21;28.67;;;9.47;;
479;SDS011;226;48.606;9.096;2022-08-19T03:05:50;19.83;;;8.80;;
479;SDS011;226;48.606;9.096;2022-08-19T03:08:22;24.23;;;10.10;;
479;SDS011;226;48.606;9.096;2022-08-19T03:10:52;22.30;;;9.90;;
479;SDS011;226;48.606;9.096;2022-08-19T03:13:21;23.23;;;10.23;;
479;SDS011;226;48.606;9.096;2022-08-19T03:15:50;19.37;;;10.07;;
479;SDS011;226;48.606;9.096;2022-08-19T03:18:18;21.47;;;9.67;;
479;SDS011;226;48.606;9.096;2022-08-19T03:20:50;21.67;;;10.90;;
479;SDS011;226;48.606;9.096;2022-08-19T03:23:20;28.37;;;10.80;;
479;SDS011;226;48.606;9.096;2022-08-19T03:25:50;23.40;;;9.63;;
479;SDS011;226;48.606;9.096;2022-08-19T03:28:40;20.03;;;9.53;;
479;SDS011;226;48.606;9.096;2022-08-19T03:31:17;32.97;;;12.30;;
479;SDS011;226;48.606;9.096;2022-08-19T03:34:08;26.27;;;10.00;;
479;SDS011;226;48.606;9.096;2022-08-19T03:36:38;27.50;;;10.67;;
479;SDS011;226;48.606;9.096;2022-08-19T03:39:06;21.80;;;11.23;;
479;SDS011;226;48.606;9.096;2022-08-19T03:41:37;26.30;;;11.23;;
479;SDS011;226;48.606;9.096;2022-08-19T03:44:11;35.87;;;12.90;;
479;SDS011;226;48.606;9.096;2022-08-19T03:46:44;27.97;;;11.17;;
479;SDS011;226;48.606;9.096;2022-08-19T03:49:13;32.77;;;12.97;;
479;SDS011;226;48.606;9.096;2022-08-19T03:51:44;39.33;;;13.57;;
479;SDS011;226;48.606;9.096;2022-08-19T03:54:14;32.00;;;13.73;;
479;SDS011;226;48.606;9.096;2022-08-19T03:56:45;36.27;;;12.73;;
479;SDS011;226;48.606;9.096;2022-08-19T03:59:16;27.47;;;12.47;;
479;SDS011;226;48.606;9.096;2022-08-19T04:01:46;30.60;;;13.40;;
479;SDS011;226;48.606;9.096;2022-08-19T04:04:14;29.87;;;12.57;;
479;SDS011;226;48.606;9.096;2022-08-19T04:06:45;22.90;;;11.13;;
479;SDS011;226;48.606;9.096;2022-08-19T04:09:14;31.63;;;13.57;;
479;SDS011;226;48.606;9.096;2022-08-19T04:11:43;28.93;;;13.23;;
479;SDS011;226;48.606;9.096;2022-08-19T04:14:14;51.33;;;13.50;;
479;SDS011;226;48.606;9.096;2022-08-19T04:16:44;37.47;;;14.40;;
479;SDS011;226;48.606;9.096;2022-08-19T04:19:13;36.20;;;13.57;;
479;SDS011;226;48.606;9.096;2022-08-19T04:21:44;28.43;;;12.93;;
479;SDS011;226;48.606;9.096;2022-08-19T04:24:13;34.30;;;14.60;;
479;SDS011;226;48.606;9.096;2022-08-19T04:26:42;23.57;;;11.50;;
479;SDS011;226;48.606;9.096;2022-08-19T04:29:13;28.13;;;14.10;;
479;SDS011;226;48.606;9.096;2022-08-19T04:31:42;33.67;;;12.80;;
479;SDS011;226;48.606;9.096;2022-08-19T04:34:12;31.70;;;12.47;;
479;SDS011;226;48.606;9.096;2022-08-19T04:36:43;26.30;;;12.53;;
479;SDS011;226;48.606;9.096;2022-08-19T04:39:12;28.03;;;12.13;;
479;SDS011;226;48.606;9.096;2022-08-19T04:41:43;26.57;;;13.47;;
479;SDS011;226;48.606;9.096;2022-08-19T04:44:31;29.63;;;12.60;;
479;SDS011;226;48.606;9.096;2022-08-19T04:47:00;46.23;;;16.00;;
479;SDS011;226;48.606;9.096;2022-08-19T04:49:36;29.60;;;13.30;;
479;SDS011;226;48.606;9.096;2022-08-19T04:52:05;30.07;;;13.67;;
479;SDS011;226;48.606;9.096;2022-08-19T04:54:34;32.20;;;13.93;;
479;SDS011;226;48.606;9.096;2022-08-19T04:57:05;37.20;;;16.20;;
479;SDS011;226;48.606;9.096;2022-08-19T04:59:38;41.50;;;15.63;;
479;SDS011;226;48.606;9.096;2022-08-19T05:02:06;44.53;;;17.17;;
479;SDS011;226;48.606;9.096;2022-08-19T05:04:36;28.57;;;12.47;;
479;SDS011;226;48.606;9.096;2022-08-19T05:07:05;32.97;;;13.30;;
479;SDS011;226;48.606;9.096;2022-08-19T05:09:34;38.63;;;15.70;;
479;SDS011;226;48.606;9.096;2022-08-19T05:12:22;33.03;;;15.20;;
479;SDS011;226;48.606;9.096;2022-08-19T05:14:56;30.43;;;12.73;;
479;SDS011;226;48.606;9.096;2022-08-19T05:17:25;38.83;;;13.40;;
479;SDS011;226;48.606;9.096;2022-08-19T05:20:00;34.40;;;14.67;;
479;SDS011;226;48.606;9.096;2022-08-19T05:22:46;36.37;;;15.10;;
479;SDS011;226;48.606;9.096;2022-08-19T05:25:16;29.47;;;13.27;;
479;SDS011;226;48.606;9.096;2022-08-19T05:27:46;40.37;;;14.17;;
479;SDS011;226;48.606;9.096;2022-08-19T05:30:17;34.83;;;12.60;;
479;SDS011;226;48.606;9.096;2022-08-19T05:33:05;32.30;;;13.20;;
479;SDS011;226;48.606;9.096;2022-08-19T05:35:36;32.90;;;13.43;;
479;SDS011;226;48.606;9.096;2022-08-19T05:38:05;25.80;;;12.43;;
479;SDS011;226;48.606;9.096;2022-08-19T05:40:34;34.23;;;14.00;;
479;SDS011;226;48.606;9.096;2022-08-19T05:43:03;36.33;;;13.57;;
479;SDS011;226;48.606;9.096;2022-08-19T05:45:37;29.33;;;13.03;;
479;SDS011;226;48.606;9.096;2022-08-19T05:48:06;33.50;;;14.33;;
479;SDS011;226;48.606;9.096;2022-08-19T05:50:37;26.70;;;12.60;;
479;SDS011;226;48.606;9.096;2022-08-19T05:53:06;28.43;;;13.03;;
479;SDS011;226;48.606;9.096;2022-08-19T05:55:35;33.50;;;13.37;;
479;SDS011;226;48.606;9.096;2022-08-19T05:58:05;31.57;;;13.27;;
479;SDS011;226;48.606;9.096;2022-08-19T06:00:35;30.00;;;12.60;;
479;SDS011;226;48.606;9.096;2022-08-19T06:03:04;33.80;;;13.37;;
479;SDS011;226;48.606;9.096;2022-08-19T06:05:38;36.83;;;14.43;;
479;SDS011;226;48.606;9.096;2022-08-19T06:08:16;30.30;;;14.17;;
479;SDS011;226;48.606;9.096;2022-08-19T06:10:45;30.87;;;12.50;;
479;SDS011;226;48.606;9.096;2022-08-19T06:13:13;32.50;;;13.70;;
479;SDS011;226;48.606;9.096;2022-08-19T06:15:42;32.53;;;13.60;;
479;SDS011;226;48.606;9.096;2022-08-19T06:18:12;31.37;;;12.27;;
479;SDS011;226;48.606;9.096;2022-08-19T06:20:42;28.73;;;13.00;;
479;SDS011;226;48.606;9.096;2022-08-19T06:23:25;28.90;;;12.80;;
479;SDS011;226;48.606;9.096;2022-08-19T06:25:53;39.37;;;15.90;;
479;SDS011;226;48.606;9.096;2022-08-19T06:28:21;31.47;;;14.40;;
479;SDS011;226;48.606;9.096;2022-08-19T06:30:51;32.67;;;14.30;;
479;SDS011;226;48.606;9.096;2022-08-19T06:33:19;24.67;;;11.40;;
479;SDS011;226;48.606;9.096;2022-08-19T06:35:47;27.53;;;11.90;;
479;SDS011;226;48.606;9.096;2022-08-19T06:38:15;35.27;;;12.70;;
479;SDS011;226;48.606;9.096;2022-08-19T06:40:43;30.60;;;12.73;;
479;SDS011;226;48.606;9.096;2022-08-19T06:43:11;26.60;;;12.47;;
479;SDS011;226;48.606;9.096;2022-08-19T06:45:43;29.70;;;13.17;;
479;SDS011;226;48.606;9.096;2022-08-19T06:48:14;33.57;;;13.63;;
479;SDS011;226;48.606;9.096;2022-08-19T06:50:43;26.60;;;10.90;;
479;SDS011;226;48.606;9.096;2022-08-19T06:53:11;30.20;;;13.23;;
479;SDS011;226;48.606;9.096;2022-08-19T06:55:40;34.10;;;13.33;;
479;SDS011;226;48.606;9.096;2022-08-19T06:58:08;31.00;;;13.53;;
479;SDS011;226;48.606;9.096;2022-08-19T07:00:36;27.33;;;12.90;;
479;SDS011;226;48.606;9.096;2022-08-19T07:03:04;25.83;;;12.87;;
479;SDS011;226;48.606;9.096;2022-08-19T07:05:39;33.83;;;14.70;;
479;SDS011;226;48.606;9.096;2022-08-19T07:08:11;29.83;;;13.50;;
479;SDS011;226;48.606;9.096;2022-08-19T07:10:42;33.50;;;15.20;;
479;SDS011;226;48.606;9.096;2022-08-19T07:13:11;38.70;;;13.67;;
479;SDS011;226;48.606;9.096;2022-08-19T07:15:39;32.10;;;14.00;;
479;SDS011;226;48.606;9.096;2022-08-19T07:18:08;26.23;;;12.87;;
479;SDS011;226;48.606;9.096;2022-08-19T07:20:38;35.70;;;13.63;;
479;SDS011;226;48.606;9.096;2022-08-19T07:23:08;29.43;;;12.40;;
479;SDS011;226;48.606;9.096;2022-08-19T07:25:42;38.23;;;14.93;;
479;SDS011;226;48.606;9.096;2022-08-19T07:28:18;28.27;;;13.13;;
479;SDS011;226;48.606;9.096;2022-08-19T07:30:50;29.50;;;12.53;;
479;SDS011;226;48.606;9.096;2022-08-19T07:33:18;31.07;;;14.47;;
479;SDS011;226;48.606;9.096;2022-08-19T07:35:48;26.90;;;12.90;;
479;SDS011;226;48.606;9.096;2022-08-19T07:38:16;31.13;;;13.30;;
479;SDS011;226;48.606;9.096;2022-08-19T07:40:44;30.10;;;12.87;;
479;SDS011;226;48.606;9.096;2022-08-19T07:43:13;27.40;;;11.23;;
479;SDS011;226;48.606;9.096;2022-08-19T07:45:43;37.10;;;14.40;;
479;SDS011;226;48.606;9.096;2022-08-19T07:48:13;29.43;;;12.87;;
479;SDS011;226;48.606;9.096;2022-08-19T07:50:41;28.80;;;13.40;;
479;SDS011;226;48.606;9.096;2022-08-19T07:53:11;30.13;;;12.80;;
479;SDS011;226;48.606;9.096;2022-08-19T07:55:39;35.53;;;13.93;;
479;SDS011;226;48.606;9.096;2022-08-19T07:58:10;28.70;;;11.67;;
479;SDS011;226;48.606;9.096;2022-08-19T08:00:40;32.23;;;12.00;;
479;SDS011;226;48.606;9.096;2022-08-19T08:03:09;24.00;;;11.37;;
479;SDS011;226;48.606;9.096;2022-08-19T08:05:37;27.43;;;12.30;;
479;SDS011;226;48.606;9.096;2022-08-19T08:08:24;24.13;;;12.30;;
479;SDS011;226;48.606;9.096;2022-08-19T08:11:14;27.40;;;11.83;;
479;SDS011;226;48.606;9.096;2022-08-19T08:13:46;26.97;;;10.70;;
479;SDS011;226;48.606;9.096;2022-08-19T08:16:30;26.83;;;11.87;;
479;SDS011;226;48.606;9.096;2022-08-19T08:19:00;24.30;;;12.80;;
479;SDS011;226;48.606;9.096;2022-08-19T08:21:41;25.10;;;11.83;;
479;SDS011;226;48.606;9.096;2022-08-19T08:24:11;25.80;;;11.10;;
479;SDS011;226;48.606;9.096;2022-08-19T08:26:39;26.13;;;9.90;;
479;SDS011;226;48.606;9.096;2022-08-19T08:29:12;27.27;;;12.27;;
479;SDS011;226;48.606;9.096;2022-08-19T08:31:42;34.33;;;12.80;;
479;SDS011;226;48.606;9.096;2022-08-19T08:34:11;31.40;;;12.97;;
479;SDS011;226;48.606;9.096;2022-08-19T08:36:42;26.53;;;11.47;;
479;SDS011;226;48.606;9.096;2022-08-19T08:39:13;24.47;;;11.70;;
479;SDS011;226;48.606;9.096;2022-08-19T08:41:44;31.07;;;11.97;;
479;SDS011;226;48.606;9.096;2022-08-19T08:44:20;29.53;;;12.10;;
479;SDS011;226;48.606;9.096;2022-08-19T08:46:51;31.00;;;13.30;;
479;SDS011;226;48.606;9.096;2022-08-19T08:49:26;25.30;;;11.97;;
479;SDS011;226;48.606;9.096;2022-08-19T08:52:02;32.70;;;12.47;;
479;SDS011;226;48.606;9.096;2022-08-19T08:54:36;26.80;;;12.13;;
479;SDS011;226;48.606;9.096;2022-08-19T08:57:23;28.47;;;12.50;;
479;SDS011;226;48.606;9.096;2022-08-19T09:00:07;25.07;;;12.27;;
479;SDS011;226;48.606;9.096;2022-08-19T09:02:41;35.60;;;14.50;;
479;SDS011;226;48.606;9.096;2022-08-19T09:05:10;30.13;;;12.23;;
479;SDS011;226;48.606;9.096;2022-08-19T09:07:44;33.27;;;14.93;;
479;SDS011;226;48.606;9.096;2022-08-19T09:10:20;28.97;;;13.40;;
479;SDS011;226;48.606;9.096;2022-08-19T09:12:57;27.20;;;12.57;;
479;SDS011;226;48.606;9.096;2022-08-19T09:15:36;30.87;;;11.97;;
479;SDS011;226;48.606;9.096;2022-08-19T09:18:14;25.33;;;13.07;;
479;SDS011;226;48.606;9.096;2022-08-19T09:20:45;31.83;;;13.73;;
479;SDS011;226;48.606;9.096;2022-08-19T09:23:14;33.53;;;14.43;;
479;SDS011;226;48.606;9.096;2022-08-19T09:25:44;31.57;;;14.00;;
479;SDS011;226;48.606;9.096;2022-08-19T09:28:12;30.73;;;14.13;;
479;SDS011;226;48.606;9.096;2022-08-19T09:30:52;28.93;;;14.47;;
479;SDS011;226;48.606;9.096;2022-08-19T09:33:20;28.47;;;12.90;;
479;SDS011;226;48.606;9.096;2022-08-19T09:35:48;35.20;;;14.53;;
479;SDS011;226;48.606;9.096;2022-08-19T09:38:19;26.83;;;13.47;;
479;SDS011;226;48.606;9.096;2022-08-19T09:40:49;32.40;;;14.63;;
479;SDS011;226;48.606;9.096;2022-08-19T09:43:17;34.77;;;13.57;;
479;SDS011;226;48.606;9.096;2022-08-19T09:45:58;29.30;;;12.10;;
479;SDS011;226;48.606;9.096;2022-08-19T09:48:27;28.73;;;13.07;;
479;SDS011;226;48.606;9.096;2022-08-19T09:51:01;29.48;;;14.85;;
479;SDS011;226;48.606;9.096;2022-08-19T09:53:31;33.83;;;14.47;;
479;SDS011;226;48.606;9.096;2022-08-19T09:56:00;31.53;;;12.77;;
479;SDS011;226;48.606;9.096;2022-08-19T09:58:29;34.47;;;12.47;;
479;SDS011;226;48.606;9.096;2022-08-19T10:00:57;29.77;;;11.70;;
479;SDS011;226;48.606;9.096;2022-08-19T10:03:27;30.63;;;12.93;;
479;SDS011;226;48.606;9.096;2022-08-19T10:05:57;29.87;;;13.30;;
479;SDS011;226;48.606;9.096;2022-08-19T10:08:27;28.60;;;13.20;;
479;SDS011;226;48.606;9.096;2022-08-19T10:10:59;40.37;;;13.33;;
479;SDS011;226;48.606;9.096;2022-08-19T10:13:50;30.80;;;13.63;;
479;SDS011;226;48.606;9.096;2022-08-19T10:16:19;34.17;;;13.50;;
479;SDS011;226;48.606;9.096;2022-08-19T10:18:55;23.37;;;13.40;;
479;SDS011;226;48.606;9.096;2022-08-19T10:21:26;37.20;;;12.97;;
479;SDS011;226;48.606;9.096;2022-08-19T10:23:58;27.23;;;12.87;;
479;SDS011;226;48.606;9.096;2022-08-19T10:26:30;27.17;;;12.67;;
479;SDS011;226;48.606;9.096;2022-08-19T10:29:00;37.17;;;13.63;;
479;SDS011;226;48.606;9.096;2022-08-19T10:31:28;26.90;;;12.70;;
479;SDS011;226;48.606;9.096;2022-08-19T10:34:18;35.97;;;14.43;;
479;SDS011;226;48.606;9.096;2022-08-19T10:36:53;26.27;;;13.17;;
479;SDS011;226;48.606;9.096;2022-08-19T10:39:27;32.77;;;14.97;;
479;SDS011;226;48.606;9.096;2022-08-19T10:41:59;32.03;;;15.77;;
479;SDS011;226;48.606;9.096;2022-08-19T10:44:32;30.87;;;14.33;;
479;SDS011;226;48.606;9.096;2022-08-19T10:47:01;29.37;;;15.30;;
479;SDS011;226;48.606;9.096;2022-08-19T10:49:48;31.60;;;14.50;;
479;SDS011;226;48.606;9.096;2022-08-19T10:52:37;32.37;;;13.90;;
479;SDS011;226;48.606;9.096;2022-08-19T10:55:15;43.10;;;14.17;;
479;SDS011;226;48.606;9.096;2022-08-19T10:58:03;29.97;;;13.87;;
479;SDS011;226;48.606;9.096;2022-08-19T11:00:36;27.93;;;12.57;;
479;SDS011;226;48.606;9.096;2022-08-19T11:03:04;29.40;;;13.90;;
479;SDS011;226;48.606;9.096;2022-08-19T11:05:34;31.67;;;12.87;;
479;SDS011;226;48.606;9.096;2022-08-19T11:08:05;28.43;;;14.70;;
479;SDS011;226;48.606;9.096;2022-08-19T11:10:49;34.30;;;14.77;;
479;SDS011;226;48.606;9.096;2022-08-19T11:13:21;27.27;;;11.70;;
479;SDS011;226;48.606;9.096;2022-08-19T11:15:55;29.57;;;13.37;;
479;SDS011;226;48.606;9.096;2022-08-19T11:18:32;29.33;;;15.20;;
479;SDS011;226;48.606;9.096;2022-08-19T11:21:05;35.20;;;14.17;;
479;SDS011;226;48.606;9.096;2022-08-19T11:23:34;27.50;;;11.83;;
479;SDS011;226;48.606;9.096;2022-08-19T11:26:02;24.80;;;13.10;;
479;SDS011;226;48.606;9.096;2022-08-19T11:28:31;29.10;;;13.30;;
479;SDS011;226;48.606;9.096;2022-08-19T11:31:00;34.37;;;13.10;;
479;SDS011;226;48.606;9.096;2022-08-19T11:33:29;30.67;;;11.77;;
479;SDS011;226;48.606;9.096;2022-08-19T11:35:59;37.43;;;13.30;;
479;SDS011;226;48.606;9.096;2022-08-19T11:38:27;22.10;;;12.30;;
479;SDS011;226;48.606;9.096;2022-08-19T11:40:55;32.70;;;14.10;;
479;SDS011;226;48.606;9.096;2022-08-19T11:43:24;29.63;;;12.20;;
479;SDS011;226;48.606;9.096;2022-08-19T11:45:54;26.00;;;12.47;;
479;SDS011;226;48.606;9.096;2022-08-19T11:48:23;20.67;;;10.33;;
479;SDS011;226;48.606;9.096;2022-08-19T11:50:52;22.40;;;11.03;;
479;SDS011;226;48.606;9.096;2022-08-19T11:53:22;29.50;;;13.10;;
479;SDS011;226;48.606;9.096;2022-08-19T11:55:52;22.43;;;10.47;;
479;SDS011;226;48.606;9.096;2022-08-19T11:58:22;28.17;;;12.60;;
479;SDS011;226;48.606;9.096;2022-08-19T12:00:51;30.43;;;12.20;;
479;SDS011;226;48.606;9.096;2022-08-19T12:03:21;20.00;;;10.10;;
479;SDS011;226;48.606;9.096;2022-08-19T12:05:49;30.93;;;12.70;;
479;SDS011;226;48.606;9.096;2022-08-19T12:08:18;24.47;;;11.07;;
479;SDS011;226;48.606;9.096;2022-08-19T12:10:46;24.87;;;10.47;;
479;SDS011;226;48.606;9.096;2022-08-19T12:13:14;29.40;;;12.37;;
479;SDS011;226;48.606;9.096;2022-08-19T12:15:45;26.67;;;11.63;;
479;SDS011;226;48.606;9.096;2022-08-19T12:18:14;27.13;;;12.97;;
479;SDS011;226;48.606;9.096;2022-08-19T12:20:43;25.90;;;11.97;;
479;SDS011;226;48.606;9.096;2022-08-19T12:23:13;25.57;;;11.80;;
479;SDS011;226;48.606;9.096;2022-08-19T12:25:43;27.97;;;13.23;;
479;SDS011;226;48.606;9.096;2022-08-19T12:28:16;27.13;;;11.57;;
479;SDS011;226;48.606;9.096;2022-08-19T12:30:44;26.10;;;11.60;;
479;SDS011;226;48.606;9.096;2022-08-19T12:33:13;30.13;;;11.33;;
479;SDS011;226;48.606;9.096;2022-08-19T12:35:41;24.20;;;11.57;;
479;SDS011;226;48.606;9.096;2022-08-19T12:38:13;25.57;;;13.20;;
479;SDS011;226;48.606;9.096;2022-08-19T12:40:42;28.33;;;10.63;;
479;SDS011;226;48.606;9.096;2022-08-19T12:43:13;28.37;;;14.40;;
479;SDS011;226;48.606;9.096;2022-08-19T12:45:42;30.60;;;12.40;;
479;SDS011;226;48.606;9.096;2022-08-19T12:48:12;26.27;;;12.70;;
479;SDS011;226;48.606;9.096;2022-08-19T12:51:05;28.97;;;12.10;;
479;SDS011;226;48.606;9.096;2022-08-19T12:53:34;26.53;;;12.17;;
479;SDS011;226;48.606;9.096;2022-08-19T12:56:05;28.40;;;12.10;;
479;SDS011;226;48.606;9.096;2022-08-19T12:58:38;29.83;;;13.20;;
479;SDS011;226;48.606;9.096;2022-08-19T13:01:15;27.07;;;12.50;;
479;SDS011;226;48.606;9.096;2022-08-19T13:03:48;21.77;;;12.10;;
479;SDS011;226;48.606;9.096;2022-08-19T13:06:19;26.03;;;12.90;;
479;SDS011;226;48.606;9.096;2022-08-19T13:08:48;28.83;;;12.67;;
479;SDS011;226;48.606;9.096;2022-08-19T13:11:21;33.70;;;13.27;;
479;SDS011;226;48.606;9.096;2022-08-19T13:13:51;28.07;;;12.73;;
479;SDS011;226;48.606;9.096;2022-08-19T13:16:21;30.60;;;13.17;;
479;SDS011;226;48.606;9.096;2022-08-19T13:18:49;35.83;;;14.33;;
479;SDS011;226;48.606;9.096;2022-08-19T13:21:21;29.83;;;13.57;;
479;SDS011;226;48.606;9.096;2022-08-19T13:23:51;36.00;;;14.77;;
479;SDS011;226;48.606;9.096;2022-08-19T13:26:19;40.77;;;17.20;;
479;SDS011;226;48.606;9.096;2022-08-19T13:28:47;34.97;;;14.87;;
479;SDS011;226;48.606;9.096;2022-08-19T13:31:33;37.97;;;16.50;;
479;SDS011;226;48.606;9.096;2022-08-19T13:34:26;38.37;;;16.30;;
479;SDS011;226;48.606;9.096;2022-08-19T13:36:58;33.47;;;15.47;;
479;SDS011;226;48.606;9.096;2022-08-19T13:39:26;37.33;;;15.67;;
479;SDS011;226;48.606;9.096;2022-08-19T13:41:54;33.00;;;13.87;;
479;SDS011;226;48.606;9.096;2022-08-19T13:44:22;33.27;;;13.93;;
479;SDS011;226;48.606;9.096;2022-08-19T13:46:50;32.70;;;14.60;;
479;SDS011;226;48.606;9.096;2022-08-19T13:49:19;31.37;;;14.73;;
479;SDS011;226;48.606;9.096;2022-08-19T13:51:49;28.27;;;13.87;;
479;SDS011;226;48.606;9.096;2022-08-19T13:54:19;37.17;;;15.10;;
479;SDS011;226;48.606;9.096;2022-08-19T13:56:47;28.33;;;14.40;;
479;SDS011;226;48.606;9.096;2022-08-19T13:59:15;31.20;;;13.77;;
479;SDS011;226;48.606;9.096;2022-08-19T14:01:43;29.80;;;14.23;;
479;SDS011;226;48.606;9.096;2022-08-19T14:04:11;29.47;;;13.40;;
479;SDS011;226;48.606;9.096;2022-08-19T14:06:39;35.27;;;12.73;;
479;SDS011;226;48.606;9.096;2022-08-19T14:09:07;30.70;;;13.20;;
479;SDS011;226;48.606;9.096;2022-08-19T14:11:37;27.90;;;14.70;;
479;SDS011;226;48.606;9.096;2022-08-19T14:14:05;37.20;;;14.93;;
479;SDS011;226;48.606;9.096;2022-08-19T14:16:33;30.73;;;13.40;;
479;SDS011;226;48.606;9.096;2022-08-19T14:19:01;37.35;;;16.65;;
479;SDS011;226;48.606;9.096;2022-08-19T14:21:29;35.53;;;15.10;;
479;SDS011;226;48.606;9.096;2022-08-19T14:23:57;32.47;;;15.70;;
479;SDS011;226;48.606;9.096;2022-08-19T14:26:25;35.87;;;13.37;;
479;SDS011;226;48.606;9.096;2022-08-19T14:28:54;34.40;;;15.33;;
479;SDS011;226;48.606;9.096;2022-08-19T14:31:23;32.50;;;14.53;;
479;SDS011;226;48.606;9.096;2022-08-19T14:33:56;27.13;;;13.87;;
479;SDS011;226;48.606;9.096;2022-08-19T14:36:24;30.33;;;14.63;;
479;SDS011;226;48.606;9.096;2022-08-19T14:38:52;32.67;;;13.93;;
479;SDS011;226;48.606;9.096;2022-08-19T14:41:21;31.50;;;15.77;;
479;SDS011;226;48.606;9.096;2022-08-19T14:43:51;30.43;;;13.60;;
479;SDS011;226;48.606;9.096;2022-08-19T14:46:22;29.90;;;14.57;;
479;SDS011;226;48.606;9.096;2022-08-19T14:48:54;25.80;;;11.73;;
479;SDS011;226;48.606;9.096;2022-08-19T14:51:25;36.33;;;15.70;;
479;SDS011;226;48.606;9.096;2022-08-19T14:53:53;26.63;;;12.00;;
479;SDS011;226;48.606;9.096;2022-08-19T14:56:22;21.97;;;12.03;;
479;SDS011;226;48.606;9.096;2022-08-19T14:58:53;23.80;;;12.03;;
479;SDS011;226;48.606;9.096;2022-08-19T15:01:22;24.83;;;11.87;;
479;SDS011;226;48.606;9.096;2022-08-19T15:03:51;22.00;;;11.20;;
479;SDS011;226;48.606;9.096;2022-08-19T15:06:20;28.90;;;12.80;;
479;SDS011;226;48.606;9.096;2022-08-19T15:08:48;32.60;;;13.60;;
479;SDS011;226;48.606;9.096;2022-08-19T15:11:18;23.17;;;11.40;;
479;SDS011;226;48.606;9.096;2022-08-19T15:13:48;23.40;;;11.57;;
479;SDS011;226;48.606;9.096;2022-08-19T15:16:17;24.67;;;12.20;;
479;SDS011;226;48.606;9.096;2022-08-19T15:18:48;19.13;;;9.97;;
479;SDS011;226;48.606;9.096;2022-08-19T15:21:18;26.60;;;10.60;;
479;SDS011;226;48.606;9.096;2022-08-19T15:23:53;25.63;;;11.20;;
479;SDS011;226;48.606;9.096;2022-08-19T15:26:22;24.43;;;12.80;;
479;SDS011;226;48.606;9.096;2022-08-19T15:28:52;24.53;;;11.47;;
479;SDS011;226;48.606;9.096;2022-08-19T15:31:21;24.33;;;11.03;;
479;SDS011;226;48.606;9.096;2022-08-19T15:33:55;24.50;;;10.90;;
479;SDS011;226;48.606;9.096;2022-08-19T15:36:24;17.67;;;10.00;;
479;SDS011;226;48.606;9.096;2022-08-19T15:38:53;21.20;;;11.80;;
479;SDS011;226;48.606;9.096;2022-08-19T15:41:21;19.07;;;10.03;;
479;SDS011;226;48.606;9.096;2022-08-19T15:43:53;21.73;;;10.87;;